createdAt,value
2019-02-05T00:00:32.594Z,70.27
2019-02-05T00:05:53.568Z,112.33
2019-02-05T00:11:15.464Z,84.37
2019-02-05T00:16:37.750Z,75.97
2019-02-05T00:22:11.344Z,99.90
2019-02-05T00:27:33.183Z,95.70
2019-02-05T00:32:54.652Z,73.27
2019-02-05T00:38:15.993Z,78.33
2019-02-05T00:43:37.510Z,55.60
2019-02-05T00:48:58.904Z,62.90
2019-02-05T00:54:20.139Z,56.40
2019-02-05T00:59:41.568Z,58.67
2019-02-05T01:05:04.312Z,94.13
2019-02-05T01:10:26.392Z,87.63
2019-02-05T01:15:47.738Z,73.60
2019-02-05T01:21:08.947Z,103.37
2019-02-05T01:26:31.235Z,63.93
2019-02-05T01:31:52.893Z,52.57
2019-02-05T01:37:13.931Z,65.87
2019-02-05T01:42:35.728Z,30.30
2019-02-05T01:47:56.923Z,59.00
2019-02-05T01:53:18.344Z,37.27
2019-02-05T01:58:39.156Z,77.77
2019-02-05T02:04:00.430Z,75.40
2019-02-05T02:09:21.660Z,146.47
2019-02-05T02:14:44.333Z,82.13
2019-02-05T02:20:10.164Z,74.37
2019-02-05T02:25:32.091Z,71.23
2019-02-05T02:30:53.274Z,56.10
2019-02-05T02:36:14.329Z,67.50
2019-02-05T02:41:35.379Z,93.60
2019-02-05T02:46:56.902Z,121.83
2019-02-05T02:52:18.299Z,131.20
2019-02-05T02:57:40.768Z,123.80
2019-02-05T03:03:05.073Z,89.77
2019-02-05T03:08:27.036Z,85.00
2019-02-05T03:13:48.289Z,66.40
2019-02-05T03:19:10.217Z,123.73
2019-02-05T03:24:32.063Z,117.87
2019-02-05T03:29:53.167Z,36.57
2019-02-05T03:35:15.744Z,67.10
2019-02-05T03:41:08.725Z,90.90
2019-02-05T03:46:30.468Z,167.13
2019-02-05T03:52:17.285Z,116.97
2019-02-05T03:58:22.647Z,102.57
2019-02-05T04:04:34.838Z,74.53
2019-02-05T04:10:47.323Z,83.70
2019-02-05T04:16:59.328Z,81.47
2019-02-05T04:22:49.004Z,86.77
2019-02-05T04:28:49.914Z,80.97
2019-02-05T04:34:36.588Z,93.70
2019-02-05T04:40:44.735Z,83.03
2019-02-05T04:52:53.771Z,81.87
2019-02-05T04:58:30.689Z,70.03
2019-02-05T05:04:40.406Z,82.10
2019-02-05T05:09:59.105Z,68.10
2019-02-05T05:15:20.263Z,64.37
2019-02-05T05:20:42.588Z,77.33
2019-02-05T05:26:03.646Z,82.50
2019-02-05T05:31:25.851Z,72.20
2019-02-05T05:36:49.464Z,79.33
2019-02-05T05:42:11.273Z,91.23
2019-02-05T05:47:32.344Z,67.90
2019-02-05T05:52:53.562Z,83.17
2019-02-05T05:58:22.403Z,79.57
2019-02-05T06:03:37.345Z,86.63
2019-02-05T06:08:58.504Z,55.20
2019-02-05T06:14:19.699Z,57.83
2019-02-05T06:19:40.788Z,75.30
2019-02-05T06:25:02.004Z,76.87
2019-02-05T06:30:23.780Z,62.77
2019-02-05T06:35:45.022Z,93.60
2019-02-05T06:41:06.207Z,108.20
2019-02-05T06:46:27.360Z,89.77
2019-02-05T06:51:48.824Z,53.73
2019-02-05T06:57:09.750Z,51.27
2019-02-05T07:02:31.163Z,107.60
2019-02-05T07:07:52.674Z,53.87
2019-02-05T07:13:13.749Z,12.37
2019-02-05T07:18:34.973Z,68.33
2019-02-05T07:23:56.307Z,63.23
2019-02-05T07:29:17.479Z,54.80
2019-02-05T07:34:38.864Z,41.17
2019-02-05T07:40:00.043Z,62.67
2019-02-05T07:45:21.431Z,53.10
2019-02-05T07:50:42.302Z,59.07
2019-02-05T07:56:04.815Z,68.43
2019-02-05T08:01:27.741Z,64.33
2019-02-05T08:06:51.962Z,61.03
2019-02-05T08:12:13.962Z,51.33
2019-02-05T08:17:35.427Z,73.83
2019-02-05T08:22:56.332Z,40.77
2019-02-05T08:28:17.473Z,70.73
2019-02-05T08:33:38.687Z,42.20
2019-02-05T08:39:00.595Z,65.80
2019-02-05T08:44:21.679Z,62.07
2019-02-05T08:49:43.132Z,52.20
2019-02-05T08:55:05.848Z,59.97
2019-02-05T09:00:29.242Z,38.77
2019-02-05T09:05:50.652Z,56.77
2019-02-05T09:11:11.971Z,44.90
2019-02-05T09:16:34.486Z,44.87
2019-02-05T09:21:55.675Z,47.20
2019-02-05T09:27:16.786Z,43.90
2019-02-05T09:32:37.991Z,39.27
2019-02-05T09:37:59.909Z,43.97
2019-02-05T09:43:20.879Z,40.53
2019-02-05T09:48:42.221Z,48.27
2019-02-05T09:54:03.803Z,74.50
2019-02-05T09:59:25.459Z,43.73
2019-02-05T10:04:46.481Z,45.23
2019-02-05T10:10:09.919Z,52.97
2019-02-05T10:15:34.013Z,42.70
2019-02-05T10:20:55.867Z,29.87
2019-02-05T10:26:16.764Z,31.90
2019-02-05T10:31:38.935Z,52.27
2019-02-05T10:37:00.703Z,38.27
2019-02-05T10:42:22.723Z,42.97
2019-02-05T10:47:43.751Z,46.73
2019-02-05T10:53:05.028Z,41.70
2019-02-05T10:58:26.615Z,41.20
2019-02-05T11:03:47.526Z,33.33
2019-02-05T11:09:10.819Z,39.30
2019-02-05T11:14:31.919Z,33.60
2019-02-05T11:19:53.579Z,39.93
2019-02-05T11:25:14.939Z,27.53
2019-02-05T11:30:38.635Z,23.80
2019-02-05T11:35:59.856Z,36.13
2019-02-05T11:41:20.843Z,37.03
2019-02-05T11:46:41.890Z,26.67
2019-02-05T11:52:03.181Z,51.50
2019-02-05T11:57:25.381Z,43.00
2019-02-05T12:02:49.011Z,30.70
2019-02-05T12:08:09.735Z,37.93
2019-02-05T12:13:31.326Z,60.43
2019-02-05T12:18:52.370Z,271.13
2019-02-05T12:24:13.439Z,32.67
2019-02-05T12:29:34.686Z,40.50
2019-02-05T12:34:55.942Z,24.13
2019-02-05T12:40:17.411Z,35.43
2019-02-05T12:45:38.468Z,35.27
2019-02-05T12:50:59.762Z,35.40
2019-02-05T12:56:20.635Z,46.57
2019-02-05T13:01:41.973Z,41.70
2019-02-05T13:07:03.863Z,56.07
2019-02-05T13:12:25.047Z,37.13
2019-02-05T13:17:46.691Z,35.27
2019-02-05T13:23:09.318Z,36.53
2019-02-05T13:28:30.663Z,28.87
2019-02-05T13:33:52.799Z,40.90
2019-02-05T13:39:13.705Z,34.50
2019-02-05T13:44:34.991Z,41.90
2019-02-05T13:49:56.611Z,40.53
2019-02-05T13:55:20.703Z,34.07
2019-02-05T14:00:50.980Z,38.10
2019-02-05T14:06:12.723Z,38.43
2019-02-05T14:11:33.765Z,47.27
2019-02-05T14:16:55.167Z,47.37
2019-02-05T14:22:16.248Z,48.83
2019-02-05T14:27:37.566Z,41.73
2019-02-05T14:32:58.871Z,45.43
2019-02-05T14:38:20.195Z,53.67
2019-02-05T14:43:41.624Z,41.60
2019-02-05T14:49:02.498Z,44.23
2019-02-05T14:54:23.675Z,49.10
2019-02-05T14:59:45.044Z,34.00
2019-02-05T15:05:08.144Z,35.67
2019-02-05T15:10:29.151Z,45.60
2019-02-05T15:15:50.409Z,55.67
2019-02-05T15:21:12.608Z,48.20
2019-02-05T15:26:33.721Z,51.83
2019-02-05T15:31:56.321Z,52.37
2019-02-05T15:37:27.518Z,50.90
2019-02-05T15:42:49.114Z,67.60
2019-02-05T15:48:10.140Z,59.53
2019-02-05T15:53:38.088Z,62.47
2019-02-05T15:58:59.215Z,51.60
2019-02-05T16:04:21.751Z,46.53
2019-02-05T16:09:42.967Z,57.43
2019-02-05T16:14:45.747Z,57.47
2019-02-05T16:19:48.235Z,64.20
2019-02-05T16:24:50.778Z,71.37
2019-02-05T16:29:54.780Z,46.20
2019-02-05T16:35:05.767Z,49.67
2019-02-05T16:40:18.730Z,54.10
2019-02-05T16:45:23.583Z,43.93
2019-02-05T16:50:31.575Z,48.40
2019-02-05T16:55:34.755Z,65.87
2019-02-05T17:00:38.150Z,62.83
2019-02-05T17:05:40.747Z,65.07
2019-02-05T17:10:43.747Z,82.83
2019-02-05T17:15:46.415Z,66.57
2019-02-05T17:20:49.973Z,45.77
2019-02-05T17:25:52.647Z,73.27
2019-02-05T17:30:55.123Z,50.20
2019-02-05T17:35:59.407Z,72.90
2019-02-05T17:46:05.927Z,84.23
2019-02-05T17:51:09.124Z,84.70
2019-02-05T17:56:11.601Z,73.67
2019-02-05T18:01:16.488Z,73.03
2019-02-05T18:06:19.166Z,81.13
2019-02-05T18:11:21.855Z,75.37
2019-02-05T18:16:24.375Z,60.97
2019-02-05T18:21:29.936Z,95.90
2019-02-05T18:26:32.601Z,93.67
2019-02-05T18:31:35.104Z,70.03
2019-02-05T18:42:54.638Z,76.13
2019-02-05T18:47:57.693Z,81.77
2019-02-05T18:53:00.739Z,89.80
2019-02-05T18:58:09.329Z,88.73
2019-02-05T19:03:15.683Z,88.00
2019-02-05T19:08:16.307Z,96.73
2019-02-05T19:13:17.718Z,90.70
2019-02-05T19:18:20.638Z,69.67
2019-02-05T19:23:23.260Z,86.70
2019-02-05T19:28:28.891Z,84.30
2019-02-05T19:33:31.762Z,76.97
2019-02-05T19:38:34.339Z,83.07
2019-02-05T19:43:40.952Z,89.47
2019-02-05T19:55:05.865Z,77.17
2019-02-05T20:00:23.853Z,73.30
2019-02-05T20:05:45.578Z,88.13
2019-02-05T20:10:51.721Z,93.23
2019-02-05T20:16:09.376Z,90.20
2019-02-05T20:21:31.929Z,88.83
2019-02-05T20:26:34.597Z,103.10
2019-02-05T20:31:39.426Z,91.67
2019-02-05T20:36:45.269Z,86.03
2019-02-05T20:41:49.175Z,102.77
2019-02-05T20:46:53.522Z,108.87
2019-02-05T20:51:56.544Z,105.80
2019-02-05T20:57:17.333Z,103.23
2019-02-05T21:02:39.046Z,91.97
2019-02-05T21:08:03.564Z,107.03
2019-02-05T21:13:24.631Z,106.63
2019-02-05T21:18:45.762Z,98.83
2019-02-05T21:24:07.482Z,137.37
2019-02-05T21:29:29.461Z,88.50
2019-02-05T21:34:50.371Z,94.60
2019-02-05T21:40:17.575Z,77.53
2019-02-05T21:45:38.812Z,110.20
2019-02-05T21:51:00.719Z,109.93
2019-02-05T21:56:22.255Z,105.53
2019-02-05T22:01:43.293Z,121.87
2019-02-05T22:07:04.471Z,120.83
2019-02-05T22:12:26.531Z,137.53
2019-02-05T22:17:47.678Z,125.70
2019-02-05T22:23:08.811Z,118.97
2019-02-05T22:28:29.761Z,135.70
2019-02-05T22:33:51.128Z,130.50
2019-02-05T22:39:13.791Z,101.10
2019-02-05T22:44:35.183Z,119.93
2019-02-05T22:49:56.679Z,123.70
2019-02-05T22:55:17.899Z,142.60
2019-02-05T23:01:19.654Z,123.93
2019-02-05T23:07:15.606Z,122.97
2019-02-05T23:12:44.607Z,113.83
2019-02-05T23:18:05.750Z,122.33
2019-02-05T23:23:26.713Z,127.60
2019-02-05T23:28:47.851Z,148.83
2019-02-05T23:34:09.009Z,141.00
2019-02-05T23:39:30.846Z,125.70
2019-02-05T23:44:52.182Z,152.83
2019-02-05T23:50:16.346Z,135.47
2019-02-05T23:55:38.210Z,115.57
